Time;durP1;ratioP1;P1;durP2;ratioP2;P2;SDS_P1;SDS_P2;PMS_P1;PMS_P2;Temp;Humidity;BMP_temperature;BMP_pressure;BME280_temperature;BME280_humidity;BME280_pressure;Samples;Min_cycle;Max_cycle;Signal;HPM_P1;HPM_P2
2021/12/01 00:00:17;;;;;;;8.85;3.45;;;6.30;79.70;;;;;;5094448;28;20378;-72
2021/12/01 00:02:43;;;;;;;8.05;3.28;;;6.30;79.20;;;;;;5094481;28;20040;-71
2021/12/01 00:05:10;;;;;;;9.32;3.53;;;6.20;79.80;;;;;;5094405;28;20093;-72
2021/12/01 00:07:36;;;;;;;6.47;2.97;;;6.20;80.20;;;;;;5094343;28;20032;-72
2021/12/01 00:10:07;;;;;;;14.55;3.88;;;6.20;80.00;;;;;;5093417;28;20027;-71
2021/12/01 00:12:34;;;;;;;6.78;3.10;;;6.20;80.20;;;;;;5094194;28;20032;-72
2021/12/01 00:15:00;;;;;;;7.55;3.47;;;6.20;80.50;;;;;;5094160;28;20462;-71
2021/12/01 00:17:26;;;;;;;6.65;3.63;;;6.20;80.60;;;;;;5093887;28;20032;-72
2021/12/01 00:19:53;;;;;;;11.75;3.70;;;6.30;80.10;;;;;;5093969;28;20016;-71
2021/12/01 00:22:20;;;;;;;10.20;3.30;;;6.30;79.50;;;;;;5093984;28;20028;-72
2021/12/01 00:24:46;;;;;;;7.78;3.70;;;6.30;79.50;;;;;;5094034;28;20012;-72
2021/12/01 00:27:12;;;;;;;6.60;3.30;;;6.30;79.50;;;;;;5093611;28;20069;-72
2021/12/01 00:29:38;;;;;;;6.25;3.17;;;6.40;79.80;;;;;;5094117;28;20422;-72
2021/12/01 00:32:05;;;;;;;12.18;5.57;;;6.40;79.90;;;;;;5093817;28;20111;-72
2021/12/01 00:34:32;;;;;;;11.48;4.88;;;6.40;79.60;;;;;;5093674;28;20024;-71
2021/12/01 00:36:59;;;;;;;12.02;5.38;;;6.30;79.50;;;;;;5093959;28;20054;-71
2021/12/01 00:39:25;;;;;;;9.52;4.78;;;6.40;79.60;;;;;;5093735;28;20020;-72
2021/12/01 00:41:51;;;;;;;11.60;4.75;;;6.30;80.00;;;;;;5093625;28;20488;-72
2021/12/01 00:44:17;;;;;;;10.27;4.03;;;6.40;80.00;;;;;;5093434;28;20036;-72
2021/12/01 00:47:04;;;;;;;8.73;3.20;;;6.30;80.30;;;;;;5093416;28;20073;-71
2021/12/01 00:49:34;;;;;;;6.75;3.10;;;6.40;80.30;;;;;;5093319;28;20056;-72
2021/12/01 00:52:00;;;;;;;11.60;4.72;;;6.40;80.30;;;;;;5093322;28;20032;-70
2021/12/01 00:54:26;;;;;;;8.75;4.63;;;6.40;80.70;;;;;;5093320;28;20462;-72
2021/12/01 00:56:52;;;;;;;9.68;3.53;;;6.30;80.70;;;;;;5093263;28;20036;-71
2021/12/01 00:59:19;;;;;;;10.50;4.53;;;6.40;80.70;;;;;;5093234;28;20020;-72
2021/12/01 01:01:46;;;;;;;8.38;4.18;;;6.40;80.80;;;;;;5093325;28;20020;-72
2021/12/01 01:04:12;;;;;;;7.95;3.42;;;6.40;81.30;;;;;;5093182;28;20016;-72
2021/12/01 01:06:38;;;;;;;7.28;3.60;;;6.40;81.40;;;;;;5093156;28;20040;-71
2021/12/01 01:09:06;;;;;;;6.97;3.17;;;6.40;81.10;;;;;;5093221;28;20022;-71
2021/12/01 01:17:09;;;;;;;14.15;5.95;;;6.50;80.90;;;;;;5093018;28;20394;-72
2021/12/01 01:19:36;;;;;;;17.25;7.30;;;6.50;80.80;;;;;;5092937;28;20024;-72
2021/12/01 01:22:07;;;;;;;14.00;5.97;;;6.40;81.00;;;;;;5092832;28;20370;-70
2021/12/01 01:24:34;;;;;;;10.98;4.53;;;6.50;81.30;;;;;;5093202;28;20023;-71
2021/12/01 01:27:00;;;;;;;14.60;6.05;;;6.50;81.30;;;;;;5092678;28;20055;-71
2021/12/01 01:29:27;;;;;;;10.18;4.40;;;6.50;81.40;;;;;;5092783;28;20429;-71
2021/12/01 01:31:57;;;;;;;11.93;3.83;;;6.60;81.40;;;;;;5092483;28;20035;-71
2021/12/01 01:34:24;;;;;;;9.35;3.70;;;6.60;81.70;;;;;;5092791;28;20024;-72
2021/12/01 01:36:52;;;;;;;7.07;3.67;;;6.60;82.00;;;;;;5093091;28;20103;-72
2021/12/01 01:39:19;;;;;;;11.48;3.47;;;6.60;82.00;;;;;;5093067;28;20030;-72
2021/12/01 01:41:45;;;;;;;7.68;2.78;;;6.60;81.30;;;;;;5093057;28;20024;-71
2021/12/01 01:44:12;;;;;;;6.15;2.40;;;6.70;80.80;;;;;;5092794;28;20020;-72
2021/12/01 01:46:40;;;;;;;12.32;3.83;;;6.70;80.40;;;;;;5092743;28;20142;-72
2021/12/01 01:49:17;;;;;;;8.23;3.85;;;6.70;80.60;;;;;;5092596;28;20492;-72
2021/12/01 01:51:43;;;;;;;12.50;5.43;;;6.70;81.20;;;;;;5092895;28;20032;-71
2021/12/01 01:54:10;;;;;;;16.05;7.05;;;6.70;81.40;;;;;;5092889;28;20027;-72
2021/12/01 01:56:38;;;;;;;28.15;14.20;;;6.70;81.60;;;;;;5092772;28;20032;-72
2021/12/01 01:59:04;;;;;;;40.38;24.33;;;6.70;82.90;;;;;;5092664;28;20016;-71
2021/12/01 02:03:57;;;;;;;43.22;22.35;;;6.70;84.60;;;;;;5092849;28;20074;-73
2021/12/01 02:06:23;;;;;;;56.13;26.02;;;6.70;84.50;;;;;;5092772;28;20028;-73
2021/12/01 02:08:51;;;;;;;60.35;29.95;;;6.70;84.70;;;;;;5092663;28;20035;-73
2021/12/01 02:11:19;;;;;;;40.88;22.98;;;6.70;82.70;;;;;;5092745;28;20032;-73
2021/12/01 02:13:45;;;;;;;40.28;22.98;;;6.60;82.60;;;;;;5092575;28;20062;-73
2021/12/01 02:16:11;;;;;;;43.20;21.35;;;6.60;83.50;;;;;;5092618;28;20024;-73
2021/12/01 02:18:39;;;;;;;41.45;22.92;;;6.60;83.10;;;;;;5092459;28;20024;-72
2021/12/01 02:21:26;;;;;;;70.57;39.28;;;6.50;83.70;;;;;;5092579;28;20047;-71
2021/12/01 02:23:54;;;;;;;53.92;30.42;;;6.50;84.50;;;;;;5092515;28;20107;-73
2021/12/01 02:26:22;;;;;;;44.45;25.50;;;6.50;85.60;;;;;;5092274;28;20150;-72
2021/12/01 02:28:51;;;;;;;50.70;28.42;;;6.40;86.40;;;;;;5092408;28;20028;-72
2021/12/01 02:31:18;;;;;;;40.92;23.05;;;6.30;87.80;;;;;;5091277;28;20084;-71
2021/12/01 02:33:44;;;;;;;61.03;33.15;;;6.20;89.20;;;;;;5093700;28;20012;-72
2021/12/01 02:36:14;;;;;;;69.63;42.03;;;6.20;89.00;;;;;;5096185;28;20028;-72
2021/12/01 02:38:44;;;;;;;70.63;40.95;;;6.10;88.90;;;;;;5096134;28;20020;-72
2021/12/01 02:41:11;;;;;;;65.45;39.80;;;6.10;89.60;;;;;;5096118;28;20092;-71
2021/12/01 02:43:38;;;;;;;61.72;35.40;;;6.10;89.80;;;;;;5095830;28;20673;-72
2021/12/01 02:46:04;;;;;;;51.15;29.83;;;6.10;89.40;;;;;;5095883;28;20035;-72
2021/12/01 02:48:30;;;;;;;51.50;30.92;;;6.10;89.70;;;;;;5095893;28;20377;-71
2021/12/01 02:50:58;;;;;;;51.50;29.95;;;6.20;90.00;;;;;;5095955;28;20028;-72
2021/12/01 02:53:25;;;;;;;52.28;28.63;;;6.20;90.50;;;;;;5095845;28;20361;-72
2021/12/01 02:55:54;;;;;;;66.85;39.30;;;6.20;91.70;;;;;;5095860;28;20028;-72
2021/12/01 02:58:21;;;;;;;64.68;39.25;;;6.10;91.30;;;;;;5095763;28;20032;-72
2021/12/01 03:00:49;;;;;;;54.65;33.80;;;6.10;90.60;;;;;;5095555;28;20012;-72
2021/12/01 03:03:15;;;;;;;48.17;27.73;;;6.10;91.70;;;;;;5095612;28;20020;-71
2021/12/01 03:05:46;;;;;;;48.17;28.98;;;6.10;91.10;;;;;;5095812;28;20024;-71
2021/12/01 03:08:15;;;;;;;51.92;30.10;;;6.10;90.80;;;;;;5095561;28;20082;-71
2021/12/01 03:10:40;;;;;;;53.45;30.90;;;6.10;91.70;;;;;;5095587;28;20028;-72
2021/12/01 03:13:07;;;;;;;58.25;32.38;;;6.10;92.40;;;;;;5095353;28;20028;-72
2021/12/01 03:15:33;;;;;;;51.75;30.70;;;6.10;92.50;;;;;;5094989;28;20028;-70
2021/12/01 03:18:00;;;;;;;56.38;36.00;;;6.00;91.70;;;;;;5093623;28;20028;-72
2021/12/01 03:20:26;;;;;;;60.72;36.75;;;6.00;92.40;;;;;;5095038;28;20370;-72
2021/12/01 03:22:52;;;;;;;84.43;48.67;;;6.00;93.70;;;;;;5094988;28;20032;-72
2021/12/01 03:25:18;;;;;;;75.03;41.75;;;6.00;94.10;;;;;;5094927;28;20034;-72
2021/12/01 03:27:44;;;;;;;70.25;43.47;;;6.00;95.20;;;;;;5094432;28;20035;-72
2021/12/01 03:30:12;;;;;;;63.72;38.60;;;6.00;96.10;;;;;;5094455;28;20389;-72
2021/12/01 03:32:40;;;;;;;69.53;39.78;;;6.00;96.50;;;;;;5094399;28;20099;-72
2021/12/01 03:35:09;;;;;;;58.15;36.13;;;6.00;96.40;;;;;;5094355;28;20020;-70
2021/12/01 03:37:36;;;;;;;71.47;42.08;;;5.90;96.00;;;;;;5094633;28;20028;-72
2021/12/01 03:40:03;;;;;;;76.10;42.97;;;5.90;96.80;;;;;;5094304;28;20123;-71
2021/12/01 03:42:29;;;;;;;64.93;36.88;;;5.90;96.50;;;;;;5093898;28;20554;-71
2021/12/01 03:44:57;;;;;;;69.22;38.72;;;6.00;95.60;;;;;;5094062;28;20420;-72
2021/12/01 03:47:25;;;;;;;65.50;38.70;;;6.00;95.60;;;;;;5093834;28;20035;-71
2021/12/01 03:49:51;;;;;;;66.07;37.75;;;6.00;99.10;;;;;;5093798;28;20545;-71
2021/12/01 03:52:17;;;;;;;61.00;38.38;;;5.90;96.00;;;;;;5093606;28;20486;-70
2021/12/01 03:54:44;;;;;;;63.45;37.92;;;5.80;96.00;;;;;;5093836;28;20020;-72
2021/12/01 03:57:10;;;;;;;56.35;33.58;;;5.90;95.80;;;;;;5093758;28;20074;-72
2021/12/01 03:59:37;;;;;;;77.95;46.97;;;5.90;94.80;;;;;;5093752;28;20505;-72
2021/12/01 04:02:03;;;;;;;75.57;49.70;;;6.00;94.70;;;;;;5094303;28;20028;-73
2021/12/01 04:04:29;;;;;;;71.50;42.75;;;6.00;94.70;;;;;;5093964;28;20024;-71
2021/12/01 04:06:55;;;;;;;70.75;43.33;;;6.00;94.70;;;;;;5093935;28;20078;-72
2021/12/01 04:09:21;;;;;;;61.72;39.50;;;6.10;96.00;;;;;;5094013;28;20024;-72
2021/12/01 04:11:47;;;;;;;70.50;43.00;;;6.10;96.00;;;;;;5093527;28;20024;-72
2021/12/01 04:14:13;;;;;;;64.30;40.80;;;6.00;97.40;;;;;;5093831;28;20186;-72
2021/12/01 04:16:39;;;;;;;84.28;46.70;;;6.00;98.10;;;;;;5093755;28;20036;-73
2021/12/01 04:19:06;;;;;;;70.38;42.10;;;6.00;96.60;;;;;;5093496;28;20019;-71
2021/12/01 04:21:32;;;;;;;74.07;43.05;;;6.00;96.30;;;;;;5093688;28;20114;-72
2021/12/01 04:23:58;;;;;;;48.70;29.30;;;5.90;94.90;;;;;;5093529;28;20027;-72
2021/12/01 04:26:27;;;;;;;40.63;26.02;;;5.90;95.20;;;;;;5093282;28;20044;-71
2021/12/01 04:28:54;;;;;;;33.03;21.92;;;5.90;95.80;;;;;;5093506;28;20024;-72
2021/12/01 04:31:20;;;;;;;28.20;16.70;;;5.90;95.20;;;;;;5093663;28;20498;-72
2021/12/01 04:33:46;;;;;;;27.13;16.42;;;6.00;94.90;;;;;;5093772;28;20024;-72
2021/12/01 04:36:16;;;;;;;28.67;17.42;;;6.00;94.80;;;;;;5093295;28;20371;-71
2021/12/01 04:38:42;;;;;;;32.10;19.23;;;5.90;95.10;;;;;;5093262;28;20024;-72
2021/12/01 04:41:09;;;;;;;31.73;17.70;;;5.90;96.70;;;;;;5093365;28;20078;-72
2021/12/01 04:43:37;;;;;;;46.35;28.65;;;5.90;97.00;;;;;;5092891;28;20016;-72
2021/12/01 04:46:04;;;;;;;41.88;24.00;;;5.90;97.90;;;;;;5093227;28;20028;-72
2021/12/01 04:48:31;;;;;;;32.47;18.75;;;5.90;97.90;;;;;;5093114;28;20124;-70
2021/12/01 04:50:57;;;;;;;43.58;25.05;;;5.90;97.80;;;;;;5093222;28;20016;-72
2021/12/01 04:53:24;;;;;;;44.65;22.58;;;6.00;99.00;;;;;;5093288;28;20035;-72
2021/12/01 04:55:50;;;;;;;28.38;15.55;;;6.00;98.60;;;;;;5092818;28;20044;-72
2021/12/01 04:58:16;;;;;;;37.92;20.13;;;6.00;96.60;;;;;;5092807;28;20031;-71
2021/12/01 05:00:42;;;;;;;34.15;20.20;;;6.10;97.90;;;;;;5092860;28;20031;-72
2021/12/01 05:03:07;;;;;;;39.30;22.83;;;6.10;97.00;;;;;;5092683;28;20028;-72
2021/12/01 05:05:33;;;;;;;39.45;21.55;;;6.00;96.20;;;;;;5093112;28;20466;-73
2021/12/01 05:07:59;;;;;;;42.45;20.73;;;6.00;96.00;;;;;;5092473;28;20097;-72
2021/12/01 05:10:25;;;;;;;43.80;20.58;;;6.10;95.70;;;;;;5093096;28;20024;-72
2021/12/01 05:12:51;;;;;;;48.80;25.35;;;6.10;95.60;;;;;;5092465;28;20086;-71
2021/12/01 05:15:17;;;;;;;37.80;19.80;;;6.10;96.00;;;;;;5092634;28;20074;-72
2021/12/01 05:17:42;;;;;;;27.95;15.07;;;6.00;96.00;;;;;;5093126;28;20031;-72
2021/12/01 05:20:11;;;;;;;40.50;21.75;;;6.00;96.20;;;;;;5092167;28;20048;-71
2021/12/01 05:22:38;;;;;;;40.13;21.05;;;6.00;98.00;;;;;;5092999;28;20036;-73
2021/12/01 05:25:05;;;;;;;33.78;18.95;;;6.00;99.70;;;;;;5092514;28;20077;-73
2021/12/01 05:27:32;;;;;;;31.85;16.63;;;6.00;98.60;;;;;;5092438;28;20048;-74
2021/12/01 05:29:58;;;;;;;29.17;14.85;;;6.00;97.60;;;;;;5092823;28;20359;-74
2021/12/01 05:32:24;;;;;;;30.45;16.40;;;6.00;97.90;;;;;;5092494;28;20046;-75
2021/12/01 05:34:50;;;;;;;31.00;16.92;;;6.00;97.20;;;;;;5091607;28;20032;-73
2021/12/01 05:37:16;;;;;;;29.42;16.98;;;6.00;97.50;;;;;;5092946;28;20382;-75
2021/12/01 05:39:45;;;;;;;32.30;17.15;;;6.00;98.60;;;;;;5092311;28;20382;-75
2021/12/01 05:42:12;;;;;;;26.63;13.57;;;6.00;99.20;;;;;;5092255;28;20462;-74
2021/12/01 05:44:40;;;;;;;25.70;12.48;;;6.00;97.60;;;;;;5092863;28;20025;-75
2021/12/01 05:47:06;;;;;;;23.48;11.63;;;5.90;98.30;;;;;;5092275;28;20043;-75
2021/12/01 05:49:32;;;;;;;27.70;12.95;;;6.00;98.20;;;;;;5092497;28;20334;-75
2021/12/01 05:51:58;;;;;;;32.40;17.73;;;6.00;98.30;;;;;;5092515;28;20028;-75
2021/12/01 05:54:25;;;;;;;42.65;23.92;;;5.90;98.30;;;;;;5092797;28;20089;-76
2021/12/01 05:56:51;;;;;;;40.88;22.50;;;5.90;98.00;;;;;;5092808;28;20493;-75
2021/12/01 05:59:16;;;;;;;35.35;21.38;;;5.90;98.30;;;;;;5092725;28;20107;-76
2021/12/01 06:01:43;;;;;;;39.95;24.08;;;6.00;98.10;;;;;;5092357;28;20364;-75
2021/12/01 06:04:09;;;;;;;49.17;29.80;;;6.00;98.30;;;;;;5092488;28;20378;-76
2021/12/01 06:06:35;;;;;;;69.82;38.20;;;6.10;98.50;;;;;;5092589;28;20119;-75
2021/12/01 06:09:01;;;;;;;94.90;53.38;;;6.10;98.20;;;;;;5094301;28;20527;-75
2021/12/01 06:11:27;;;;;;;96.28;53.90;;;6.00;99.30;;;;;;5096699;28;20540;-75
2021/12/01 06:13:54;;;;;;;129.35;72.93;;;6.10;99.40;;;;;;5096470;28;20062;-75
2021/12/01 06:16:21;;;;;;;154.65;93.22;;;6.10;99.90;;;;;;5096052;28;20039;-78
2021/12/01 06:18:48;;;;;;;203.55;114.28;;;6.10;99.90;;;;;;5095923;28;20016;-74
2021/12/01 06:21:14;;;;;;;229.38;126.18;;;6.20;99.90;;;;;;5096109;28;20470;-78
2021/12/01 06:23:40;;;;;;;206.40;116.90;;;6.30;99.90;;;;;;5096396;28;20105;-74
2021/12/01 06:26:05;;;;;;;172.18;99.75;;;6.30;99.90;;;;;;5095666;28;20128;-74
2021/12/01 06:28:31;;;;;;;157.23;89.78;;;6.30;99.80;;;;;;5095863;28;20062;-78
2021/12/01 06:30:57;;;;;;;155.63;88.53;;;6.40;99.70;;;;;;5096091;28;20027;-73
2021/12/01 06:33:23;;;;;;;165.13;97.53;;;6.50;99.90;;;;;;5095793;28;20048;-73
2021/12/01 06:35:51;;;;;;;172.73;109.10;;;6.70;99.90;;;;;;5096212;28;20020;-75
2021/12/01 06:38:18;;;;;;;163.90;97.22;;;6.60;99.70;;;;;;5095983;28;20028;-73
2021/12/01 06:40:46;;;;;;;136.45;77.55;;;6.50;99.90;;;;;;5095978;28;20020;-73
2021/12/01 06:43:13;;;;;;;124.53;76.30;;;6.50;99.10;;;;;;5095624;28;20085;-74
2021/12/01 06:45:39;;;;;;;138.77;77.30;;;6.50;99.90;;;;;;5095337;28;20044;-75
2021/12/01 06:48:06;;;;;;;139.00;84.38;;;6.60;99.90;;;;;;5095759;28;20039;-75
2021/12/01 06:50:32;;;;;;;132.80;81.22;;;6.60;99.60;;;;;;5095746;28;20099;-75
2021/12/01 06:52:59;;;;;;;121.15;81.28;;;6.70;99.90;;;;;;5095432;28;20505;-74
2021/12/01 06:55:25;;;;;;;147.35;92.30;;;6.70;99.90;;;;;;5095562;28;20027;-74
2021/12/01 06:57:51;;;;;;;128.50;80.82;;;6.70;99.90;;;;;;5095075;28;20454;-74
2021/12/01 07:00:20;;;;;;;144.90;85.15;;;6.80;99.90;;;;;;5095362;28;20043;-75
2021/12/01 07:02:46;;;;;;;156.27;91.50;;;6.80;99.90;;;;;;5095225;28;20529;-74
2021/12/01 07:05:13;;;;;;;142.18;89.97;;;6.90;99.90;;;;;;5095585;28;20032;-74
2021/12/01 07:07:39;;;;;;;173.40;94.95;;;6.90;99.90;;;;;;5095325;28;20034;-74
2021/12/01 07:10:08;;;;;;;183.73;98.82;;;7.00;98.30;;;;;;5095448;28;20093;-75
2021/12/01 07:12:33;;;;;;;174.95;107.47;;;7.10;99.70;;;;;;5095039;28;20254;-75
2021/12/01 07:14:59;;;;;;;169.07;101.13;;;7.10;99.60;;;;;;5094662;28;20099;-74
2021/12/01 07:17:25;;;;;;;160.45;92.35;;;7.30;97.60;;;;;;5095115;28;20020;-73
2021/12/01 07:19:51;;;;;;;146.05;84.38;;;7.40;97.00;;;;;;5094270;28;20055;-75
2021/12/01 07:22:17;;;;;;;139.52;76.57;;;7.60;96.80;;;;;;5095331;28;20028;-73
2021/12/01 07:24:44;;;;;;;158.75;78.93;;;7.50;95.10;;;;;;5095220;28;20031;-73
2021/12/01 07:27:10;;;;;;;144.55;79.95;;;7.70;95.70;;;;;;5094412;28;20391;-74
2021/12/01 07:29:36;;;;;;;149.02;78.20;;;7.70;94.50;;;;;;5094717;28;20032;-74
2021/12/01 07:32:04;;;;;;;206.55;114.35;;;7.70;95.50;;;;;;5093413;28;20035;-73
2021/12/01 07:34:30;;;;;;;168.25;93.80;;;7.70;94.50;;;;;;5094614;28;20478;-73
2021/12/01 07:36:56;;;;;;;162.05;91.40;;;7.80;95.30;;;;;;5094756;28;20024;-74
2021/12/01 07:39:22;;;;;;;114.88;64.95;;;7.90;96.30;;;;;;5093565;28;20027;-73
2021/12/01 07:41:49;;;;;;;116.55;66.47;;;7.90;95.60;;;;;;5095174;28;20412;-74
2021/12/01 07:44:15;;;;;;;133.35;76.07;;;8.00;93.20;;;;;;5094409;28;20051;-74
2021/12/01 07:46:42;;;;;;;91.20;51.65;;;7.90;93.50;;;;;;5094312;28;20031;-73
2021/12/01 07:49:08;;;;;;;77.00;47.47;;;7.90;94.20;;;;;;5094396;28;20532;-73
2021/12/01 07:51:33;;;;;;;55.20;30.17;;;7.90;94.50;;;;;;5094354;28;20024;-74
2021/12/01 07:53:59;;;;;;;51.50;26.55;;;7.90;93.80;;;;;;5094581;28;20028;-75
2021/12/01 07:56:25;;;;;;;39.38;23.38;;;8.00;92.60;;;;;;5093962;28;20366;-74
2021/12/01 07:58:51;;;;;;;37.17;20.25;;;8.10;93.20;;;;;;5093491;28;20028;-74
2021/12/01 08:01:17;;;;;;;34.15;19.75;;;8.30;94.20;;;;;;5094389;28;20028;-74
2021/12/01 08:03:43;;;;;;;51.20;27.33;;;8.50;93.00;;;;;;5094254;28;20031;-71
2021/12/01 08:06:08;;;;;;;44.53;25.83;;;8.70;91.30;;;;;;5093505;28;20032;-73
2021/12/01 08:08:34;;;;;;;43.45;23.55;;;8.80;92.30;;;;;;5093391;28;20020;-70
2021/12/01 08:11:00;;;;;;;41.45;21.00;;;8.80;91.20;;;;;;5082134;28;20482;-73
2021/12/01 08:13:26;;;;;;;39.55;18.67;;;8.90;90.80;;;;;;5084724;28;20069;-75
2021/12/01 08:15:52;;;;;;;39.03;17.95;;;9.00;90.00;;;;;;5091126;28;20127;-73
2021/12/01 08:18:18;;;;;;;28.00;13.15;;;9.10;88.60;;;;;;5093633;28;20107;-75
2021/12/01 08:20:45;;;;;;;22.80;11.63;;;9.00;88.30;;;;;;5093193;28;20103;-74
2021/12/01 08:23:11;;;;;;;28.10;13.50;;;9.10;89.30;;;;;;5092789;28;20028;-74
2021/12/01 08:25:37;;;;;;;25.15;12.10;;;9.10;87.50;;;;;;5092894;28;20443;-74
2021/12/01 08:28:04;;;;;;;17.48;8.45;;;9.20;89.00;;;;;;5093575;28;20489;-73
2021/12/01 08:30:31;;;;;;;25.70;8.63;;;9.20;87.00;;;;;;5092979;28;20107;-74
2021/12/01 08:32:57;;;;;;;23.40;9.10;;;9.30;87.00;;;;;;5090322;28;20501;-74
2021/12/01 08:35:24;;;;;;;20.13;9.68;;;9.40;86.00;;;;;;5085393;28;20038;-72
2021/12/01 08:37:50;;;;;;;19.05;9.85;;;9.50;86.70;;;;;;5087339;28;20028;-75
2021/12/01 08:40:18;;;;;;;17.30;8.48;;;9.60;83.70;;;;;;5091940;28;20502;-74
2021/12/01 08:42:45;;;;;;;22.73;11.48;;;9.60;86.70;;;;;;5093165;28;20030;-74
2021/12/01 08:45:11;;;;;;;19.27;9.80;;;9.50;86.80;;;;;;5093023;28;20024;-75
2021/12/01 08:47:37;;;;;;;27.10;11.20;;;9.70;88.50;;;;;;5093150;28;20123;-75
2021/12/01 08:50:05;;;;;;;18.58;8.90;;;9.90;87.40;;;;;;5093223;28;20519;-75
2021/12/01 08:52:31;;;;;;;17.27;8.23;;;9.90;86.80;;;;;;5092805;28;20039;-75
2021/12/01 08:54:57;;;;;;;19.38;8.57;;;9.90;85.30;;;;;;5093005;28;20016;-72
2021/12/01 08:57:23;;;;;;;14.95;6.80;;;10.10;85.00;;;;;;5092931;28;20034;-74
2021/12/01 08:59:50;;;;;;;16.00;8.13;;;10.40;85.60;;;;;;5092513;28;20046;-75
2021/12/01 09:02:17;;;;;;;16.98;8.65;;;10.40;84.90;;;;;;5089796;28;20032;-74
2021/12/01 09:04:48;;;;;;;16.70;7.80;;;10.50;83.90;;;;;;5092990;28;20020;-74
2021/12/01 09:07:13;;;;;;;16.98;7.28;;;10.40;83.70;;;;;;5092815;28;20383;-74
2021/12/01 09:09:39;;;;;;;12.45;5.97;;;10.40;84.20;;;;;;5092427;28;20013;-74
2021/12/01 09:12:05;;;;;;;22.67;14.50;;;10.20;86.30;;;;;;5092992;28;20028;-71
2021/12/01 09:14:31;;;;;;;12.20;5.85;;;10.10;87.40;;;;;;5093369;28;20031;-78
2021/12/01 09:16:58;;;;;;;13.60;5.82;;;10.40;87.90;;;;;;5078444;28;20024;-75
2021/12/01 09:19:24;;;;;;;13.68;5.03;;;10.50;85.90;;;;;;5072875;28;20024;-75
2021/12/01 09:21:50;;;;;;;11.15;5.50;;;10.70;83.20;;;;;;5072284;28;20042;-75
2021/12/01 09:24:18;;;;;;;7.35;3.33;;;10.90;81.50;;;;;;5072387;28;20386;-76
2021/12/01 09:26:44;;;;;;;7.18;3.22;;;10.90;77.60;;;;;;5072560;28;20057;-74
2021/12/01 09:29:10;;;;;;;7.00;3.28;;;10.90;76.20;;;;;;5072561;28;20025;-74
2021/12/01 09:31:37;;;;;;;8.32;4.05;;;10.90;76.30;;;;;;5072236;28;20032;-75
2021/12/01 09:34:04;;;;;;;8.80;3.78;;;11.20;79.40;;;;;;5072610;28;20023;-75
2021/12/01 09:36:30;;;;;;;5.90;3.63;;;11.40;76.10;;;;;;5071872;28;20048;-74
2021/12/01 09:38:56;;;;;;;6.32;3.17;;;11.60;77.30;;;;;;5072457;28;20367;-75
2021/12/01 09:41:23;;;;;;;9.90;4.25;;;11.70;75.40;;;;;;5071241;28;20064;-75
2021/12/01 09:43:50;;;;;;;12.60;4.53;;;11.80;75.70;;;;;;5073924;28;20085;-75
2021/12/01 09:46:17;;;;;;;10.95;4.82;;;12.00;75.50;;;;;;5074910;28;20040;-75
2021/12/01 09:48:43;;;;;;;11.63;4.88;;;12.20;74.80;;;;;;5074456;28;20117;-75
2021/12/01 09:51:11;;;;;;;13.50;6.63;;;12.30;74.30;;;;;;5076335;28;20013;-76
2021/12/01 09:53:37;;;;;;;15.88;7.65;;;12.40;72.60;;;;;;5076473;28;20029;-75
2021/12/01 09:56:04;;;;;;;22.92;9.63;;;12.50;72.50;;;;;;5076107;28;20031;-75
2021/12/01 09:58:31;;;;;;;18.65;10.00;;;12.70;73.30;;;;;;5074875;28;20269;-77
2021/12/01 10:01:03;;;;;;;19.13;8.45;;;12.80;71.60;;;;;;5074761;28;20055;-78
2021/12/01 10:03:29;;;;;;;18.15;8.65;;;13.00;70.70;;;;;;5076199;28;20548;-74
2021/12/01 10:06:07;;;;;;;19.30;9.40;;;13.00;70.80;;;;;;5074846;28;20099;-75
2021/12/01 10:08:38;;;;;;;17.95;8.80;;;13.10;71.40;;;;;;5075813;28;20020;-74
2021/12/01 10:11:08;;;;;;;19.10;10.02;;;13.10;72.00;;;;;;5075400;28;20029;-73
2021/12/01 10:13:39;;;;;;;22.73;12.00;;;13.10;71.60;;;;;;5075882;28;20021;-75
2021/12/01 10:16:09;;;;;;;23.55;12.23;;;13.20;71.50;;;;;;5075274;28;20068;-74
2021/12/01 10:18:41;;;;;;;22.05;12.10;;;13.20;69.80;;;;;;5074823;28;20482;-73
2021/12/01 10:21:15;;;;;;;;;;;13.20;68.70;;;;;;5076366;28;20421;-75
2021/12/01 10:23:47;;;;;;;36.95;16.95;;;13.30;69.40;;;;;;5075957;28;19951;-74
2021/12/01 10:26:44;;;;;;;37.45;19.67;;;13.30;68.70;;;;;;5074179;28;20048;-77
2021/12/01 10:29:18;;;;;;;37.50;20.95;;;13.20;69.50;;;;;;5075206;28;20055;-78
2021/12/01 10:32:00;;;;;;;34.85;20.15;;;13.30;68.50;;;;;;5075110;28;20028;-76
2021/12/01 10:34:28;;;;;;;37.22;19.75;;;13.40;69.20;;;;;;5072187;28;20210;-78
2021/12/01 10:37:29;;;;;;;40.40;21.50;;;13.50;68.00;;;;;;5073300;28;20228;-78
2021/12/01 10:40:18;;;;;;;34.13;17.95;;;13.60;69.00;;;;;;5075438;28;20024;-78
2021/12/01 10:42:57;;;;;;;33.45;17.23;;;13.70;67.60;;;;;;5074820;28;20024;-77
2021/12/01 10:45:26;;;;;;;34.15;17.70;;;13.80;68.20;;;;;;5074582;28;20029;-78
2021/12/01 10:47:52;;;;;;;24.08;14.02;;;13.90;69.80;;;;;;5074729;28;20382;-78
2021/12/01 10:50:21;;;;;;;18.83;8.20;;;13.90;68.60;;;;;;5074965;28;20017;-78
2021/12/01 10:52:53;;;;;;;16.48;8.43;;;13.90;68.00;;;;;;5075278;28;20055;-78
2021/12/01 10:55:24;;;;;;;21.67;8.32;;;13.80;68.00;;;;;;5074238;28;20039;-75
2021/12/01 10:57:57;;;;;;;15.15;7.72;;;13.80;67.30;;;;;;5075453;28;20058;-75
2021/12/01 11:00:26;;;;;;;;;;;13.70;69.80;;;;;;5075627;28;20067;-78
2021/12/01 11:03:03;;;;;;;14.98;6.47;;;13.70;69.80;;;;;;5074553;28;19908;-78
2021/12/01 11:05:32;;;;;;;16.52;8.73;;;13.70;69.00;;;;;;5074970;28;20475;-74
2021/12/01 11:08:16;;;;;;;13.63;7.57;;;13.90;69.60;;;;;;5074190;28;20475;-78
2021/12/01 11:10:55;;;;;;;7.90;3.30;;;13.90;67.80;;;;;;5074009;28;20449;-77
2021/12/01 11:13:22;;;;;;;4.63;2.70;;;13.80;67.60;;;;;;5074860;28;20028;-77
2021/12/01 11:15:57;;;;;;;7.22;3.35;;;13.90;66.60;;;;;;5075062;28;20052;-78
2021/12/01 11:18:26;;;;;;;7.07;3.03;;;13.90;67.20;;;;;;5075086;28;20042;-78
2021/12/01 11:20:54;;;;;;;4.53;2.60;;;13.90;66.90;;;;;;5074132;28;20046;-75
2021/12/01 11:23:22;;;;;;;9.15;3.85;;;14.00;67.80;;;;;;5074861;28;20099;-75
2021/12/01 11:25:54;;;;;;;6.82;3.80;;;14.00;67.30;;;;;;5074564;28;20100;-70
2021/12/01 11:28:23;;;;;;;11.60;5.05;;;14.00;68.40;;;;;;5074616;28;20089;-73
2021/12/01 11:30:53;;;;;;;9.18;3.13;;;14.00;67.80;;;;;;5074281;28;20158;-75
2021/12/01 11:33:20;;;;;;;13.98;2.88;;;14.10;67.80;;;;;;5074642;28;20024;-75
2021/12/01 11:35:53;;;;;;;4.60;2.53;;;14.10;67.40;;;;;;5073113;28;20043;-74
2021/12/01 11:38:18;;;;;;;;;;;14.10;67.10;;;;;;5075166;28;20455;-75
2021/12/01 11:40:45;;;;;;;9.50;3.88;;;14.10;67.80;;;;;;5074678;28;19904;-75
2021/12/01 11:43:13;;;;;;;9.55;4.10;;;14.10;67.30;;;;;;5074672;28;20473;-78
2021/12/01 11:45:41;;;;;;;13.68;4.32;;;14.10;67.40;;;;;;5074193;28;20020;-74
2021/12/01 11:48:22;;;;;;;7.15;3.30;;;14.20;68.30;;;;;;5074172;28;20067;-75
2021/12/01 11:51:08;;;;;;;9.55;2.40;;;14.10;67.30;;;;;;5074281;28;20388;-75
2021/12/01 11:53:47;;;;;;;8.10;3.67;;;14.10;66.20;;;;;;5069952;28;20040;-74
2021/12/01 11:56:32;;;;;;;6.03;2.40;;;14.10;66.70;;;;;;5071989;28;20503;-74
2021/12/01 11:59:10;;;;;;;7.88;3.35;;;14.00;65.90;;;;;;5072154;28;20437;-73
2021/12/01 12:01:38;;;;;;;11.38;5.00;;;14.10;66.30;;;;;;5073818;28;20054;-74
2021/12/01 12:04:06;;;;;;;7.22;3.33;;;14.10;66.60;;;;;;5073536;28;20048;-72
2021/12/01 12:06:35;;;;;;;7.97;2.67;;;14.20;66.70;;;;;;5072561;28;20060;-74
2021/12/01 12:09:08;;;;;;;5.57;2.63;;;14.20;66.00;;;;;;5069416;28;20021;-74
2021/12/01 12:11:51;;;;;;;6.10;2.42;;;14.10;66.10;;;;;;5073779;28;20059;-75
2021/12/01 12:14:57;;;;;;;6.18;3.20;;;14.20;66.90;;;;;;5074114;28;20042;-78
2021/12/01 12:17:35;;;;;;;9.55;4.15;;;14.10;66.70;;;;;;5069158;28;20039;-74
2021/12/01 12:20:20;;;;;;;9.02;4.43;;;14.10;67.30;;;;;;5071433;28;20029;-75
2021/12/01 12:22:46;;;;;;;4.95;2.22;;;14.20;66.20;;;;;;5073136;28;20029;-78
2021/12/01 12:25:47;;;;;;;6.45;2.08;;;14.20;66.40;;;;;;5072140;28;20398;-77
2021/12/01 12:28:30;;;;;;;7.88;3.15;;;14.20;65.40;;;;;;5071493;28;20036;-77
2021/12/01 12:31:06;;;;;;;5.63;2.25;;;14.30;67.30;;;;;;5071762;28;20016;-77
2021/12/01 12:33:37;;;;;;;3.38;1.88;;;14.10;66.00;;;;;;5072567;28;20033;-77
2021/12/01 12:36:09;;;;;;;4.63;2.10;;;14.20;66.90;;;;;;5073084;28;20029;-78
2021/12/01 12:38:36;;;;;;;3.00;2.13;;;14.20;66.90;;;;;;5073259;28;20167;-77
2021/12/01 12:41:14;;;;;;;4.05;2.42;;;14.20;66.90;;;;;;5073260;28;20581;-76
2021/12/01 12:43:43;;;;;;;5.50;2.05;;;14.10;66.40;;;;;;5072722;28;20028;-75
2021/12/01 12:46:09;;;;;;;9.73;4.50;;;14.20;66.60;;;;;;5073065;28;20533;-77
2021/12/01 12:49:01;;;;;;;10.73;5.05;;;14.20;67.10;;;;;;5072713;28;20147;-78
2021/12/01 12:51:31;;;;;;;10.17;5.67;;;14.30;67.10;;;;;;5069395;28;20028;-78
2021/12/01 12:54:01;;;;;;;6.57;3.30;;;14.30;66.10;;;;;;5072510;28;20050;-77